MUCM/CMW METAR and TAF weather

Enter ICAO airport designator
Station Type Date Time Source
MUCM METAR 2022/01/25 04:50 UTC NOAA

MUCM 250450Z 01006KT 9000 NSC 17/15 Q1016


Station Type Date Time Source
MUCM Decoded METAR 2022/01/25 04:50 UTC NOAA

Camaguey Aeropuerto, Cuba (MUCM) 21-25N 077-51W 118M
Jan 24, 2022 - 11:50 PM EST / 2022.01.25 0450 UTC
Wind: from the N (010 degrees) at 7 MPH (6 KT):0
Visibility: 5 mile(s):0
Temperature: 62 F (17 C)
Dew Point: 59 F (15 C)
Relative Humidity: 88%
Pressure (altimeter): 30.00 in. Hg (1016 hPa)
ob: MUCM 250450Z 01006KT 9000 NSC 17/15 Q1016
cycle: 5

Station Type Date Time Source
MUCM TAF 2022/01/25 06:03 UTC NOAA

TAF MUCM 250500Z 2506/2606 VRB03KT 9000 SCT020
TEMPO 2509/2514 2000 BR
BECMG 2601/2603 VRB03KT

Example: see airport list